createdAt,value
2022-11-14T00:01:31.360Z,0.60
2022-11-14T00:04:18.735Z,0.50
2022-11-14T00:07:04.788Z,0.70
2022-11-14T00:09:50.639Z,0.60
2022-11-14T00:12:36.568Z,0.53
2022-11-14T00:15:22.692Z,0.60
2022-11-14T00:18:09.136Z,0.77
2022-11-14T00:20:56.423Z,0.70
2022-11-14T00:23:42.742Z,0.50
2022-11-14T00:26:28.692Z,0.70
2022-11-14T00:29:15.403Z,0.50
2022-11-14T00:32:01.742Z,0.70
2022-11-14T00:34:47.584Z,0.60
2022-11-14T00:37:34.966Z,0.60
2022-11-14T00:40:20.987Z,0.70
2022-11-14T00:43:07.040Z,0.50
2022-11-14T00:45:53.144Z,0.53
2022-11-14T00:48:39.524Z,0.53
2022-11-14T00:51:25.384Z,0.70
2022-11-14T00:54:12.857Z,0.60
2022-11-14T00:56:58.941Z,0.60
2022-11-14T00:59:44.836Z,0.60
2022-11-14T01:02:30.657Z,0.60
2022-11-14T01:05:16.833Z,0.50
2022-11-14T01:08:02.992Z,0.67
2022-11-14T01:10:51.447Z,0.63
2022-11-14T01:13:37.761Z,0.77
2022-11-14T01:16:24.320Z,0.50
2022-11-14T01:19:10.678Z,0.67
2022-11-14T01:21:58.062Z,0.70
2022-11-14T01:24:48.321Z,0.60
2022-11-14T01:27:35.885Z,0.50
2022-11-14T01:30:22.136Z,0.60
2022-11-14T01:33:08.302Z,0.60
2022-11-14T01:35:54.442Z,0.70
2022-11-14T01:38:40.710Z,0.50
2022-11-14T01:41:26.614Z,0.50
2022-11-14T01:44:15.046Z,0.53
2022-11-14T01:47:01.091Z,0.80
2022-11-14T01:49:48.638Z,0.60
2022-11-14T01:52:35.900Z,0.70
2022-11-14T01:55:22.536Z,0.50
2022-11-14T01:58:08.844Z,0.60
2022-11-14T02:00:56.487Z,0.67
2022-11-14T02:03:43.781Z,0.60
2022-11-14T02:06:30.732Z,0.63
2022-11-14T02:09:17.074Z,0.70
2022-11-14T02:12:04.414Z,0.70
2022-11-14T02:14:51.552Z,0.60
2022-11-14T02:17:38.744Z,0.70
2022-11-14T02:20:28.549Z,0.60
2022-11-14T02:23:15.830Z,0.80
2022-11-14T02:26:01.699Z,0.80
2022-11-14T02:28:48.396Z,0.43
2022-11-14T02:31:36.887Z,0.50
2022-11-14T02:34:22.749Z,0.70
2022-11-14T02:37:10.007Z,0.60
2022-11-14T02:39:56.114Z,0.70
2022-11-14T02:42:42.420Z,0.80
2022-11-14T02:45:28.502Z,0.60
2022-11-14T02:48:14.788Z,0.50
2022-11-14T02:51:00.714Z,0.70
2022-11-14T02:53:47.986Z,0.60
2022-11-14T02:56:34.273Z,0.53
2022-11-14T02:59:20.457Z,0.60
2022-11-14T03:02:06.465Z,0.50
2022-11-14T03:04:52.670Z,0.67
2022-11-14T03:07:38.777Z,0.70
2022-11-14T03:10:26.137Z,0.67
2022-11-14T03:13:12.053Z,0.60
2022-11-14T03:15:58.215Z,0.73
2022-11-14T03:18:44.397Z,0.70
2022-11-14T03:21:30.558Z,0.50
2022-11-14T03:24:16.419Z,0.50
2022-11-14T03:27:03.947Z,0.60
2022-11-14T03:29:50.230Z,0.50
2022-11-14T03:32:36.104Z,0.70
2022-11-14T03:35:21.988Z,0.50
2022-11-14T03:38:08.035Z,0.67
2022-11-14T03:40:54.158Z,0.50
2022-11-14T03:43:41.557Z,0.60
2022-11-14T03:46:27.556Z,0.67
2022-11-14T03:49:13.972Z,0.60
2022-11-14T03:52:00.108Z,0.70
2022-11-14T03:54:46.289Z,0.60
2022-11-14T03:57:32.224Z,0.53
2022-11-14T04:00:19.993Z,0.60
2022-11-14T04:03:06.102Z,0.70
2022-11-14T04:05:52.077Z,0.50
2022-11-14T04:08:40.549Z,0.70
2022-11-14T04:11:26.326Z,0.60
2022-11-14T04:14:12.618Z,0.50
2022-11-14T04:17:00.003Z,0.63
2022-11-14T04:19:45.859Z,0.60
2022-11-14T04:22:31.806Z,0.57
2022-11-14T04:25:17.888Z,0.60
2022-11-14T04:28:03.810Z,0.60
2022-11-14T04:30:49.730Z,0.50
2022-11-14T04:33:37.929Z,0.53
2022-11-14T04:36:23.735Z,0.70
2022-11-14T04:39:09.807Z,0.50
2022-11-14T04:41:55.638Z,0.77
2022-11-14T04:44:41.828Z,0.60
2022-11-14T04:47:27.940Z,0.60
2022-11-14T04:50:15.537Z,0.60
2022-11-14T04:53:01.871Z,0.60
2022-11-14T04:55:47.974Z,0.60
2022-11-14T04:58:34.072Z,0.50
2022-11-14T05:01:20.061Z,0.50
2022-11-14T05:04:06.504Z,0.60
2022-11-14T05:06:53.786Z,0.70
2022-11-14T05:09:39.835Z,0.50
2022-11-14T05:12:25.988Z,0.67
2022-11-14T05:15:11.892Z,0.50
2022-11-14T05:17:58.056Z,0.50
2022-11-14T05:20:44.008Z,0.57
2022-11-14T05:23:31.328Z,0.70
2022-11-14T05:26:18.379Z,0.57
2022-11-14T05:29:04.538Z,0.60
2022-11-14T05:31:50.384Z,0.60
2022-11-14T05:34:36.377Z,0.60
2022-11-14T05:37:22.281Z,0.60
2022-11-14T05:40:10.957Z,0.63
2022-11-14T05:42:57.462Z,0.50
2022-11-14T05:45:43.569Z,0.50
2022-11-14T05:48:30.484Z,0.70
2022-11-14T05:51:16.614Z,0.60
2022-11-14T05:54:02.512Z,0.60
2022-11-14T05:56:50.014Z,0.60
2022-11-14T05:59:35.963Z,0.50
2022-11-14T06:02:22.207Z,0.70
2022-11-14T06:05:08.305Z,0.43
2022-11-14T06:07:58.087Z,0.50
2022-11-14T06:10:43.927Z,0.70
2022-11-14T06:13:31.511Z,0.60
2022-11-14T06:16:18.366Z,0.50
2022-11-14T06:19:05.294Z,0.50
2022-11-14T06:21:51.064Z,0.63
2022-11-14T06:24:37.396Z,0.60
2022-11-14T06:27:23.247Z,0.57
2022-11-14T06:30:12.031Z,0.60
2022-11-14T06:32:58.844Z,0.70
2022-11-14T06:35:44.992Z,0.40
2022-11-14T06:38:32.255Z,0.50
2022-11-14T06:41:19.013Z,0.60
2022-11-14T06:44:05.116Z,0.50
2022-11-14T06:46:52.525Z,0.47
2022-11-14T06:49:40.698Z,0.57
2022-11-14T06:52:27.307Z,0.40
2022-11-14T06:55:13.266Z,0.40
2022-11-14T06:57:59.303Z,0.40
2022-11-14T07:00:45.339Z,0.57
2022-11-14T07:03:32.998Z,0.47
2022-11-14T07:06:19.872Z,0.40
2022-11-14T07:09:06.606Z,0.50
2022-11-14T07:11:52.571Z,0.40
2022-11-14T07:14:38.822Z,0.30
2022-11-14T07:17:29.897Z,0.40
2022-11-14T07:20:19.266Z,0.40
2022-11-14T07:23:05.370Z,0.40
2022-11-14T07:25:51.657Z,0.30
2022-11-14T07:28:38.499Z,0.30
2022-11-14T07:31:24.354Z,0.30
2022-11-14T07:34:11.163Z,0.30
2022-11-14T07:36:58.850Z,0.25
2022-11-14T07:39:45.952Z,0.30
2022-11-14T07:42:32.054Z,0.38
2022-11-14T07:45:19.933Z,0.20
2022-11-14T07:48:06.381Z,0.30
2022-11-14T07:50:52.402Z,0.40
2022-11-14T07:53:40.080Z,0.30
2022-11-14T07:56:26.696Z,0.30
2022-11-14T07:59:12.595Z,0.30
2022-11-14T08:01:58.819Z,0.30
2022-11-14T08:04:44.873Z,0.30
2022-11-14T08:07:30.967Z,0.38
2022-11-14T08:10:18.937Z,0.20
2022-11-14T08:16:13.805Z,0.30
2022-11-14T08:19:00.445Z,0.30
2022-11-14T08:21:47.701Z,0.38
2022-11-14T08:24:33.613Z,0.22
2022-11-14T08:27:21.150Z,0.30
2022-11-14T08:30:13.302Z,0.40
2022-11-14T08:33:02.024Z,0.25
2022-11-14T08:35:48.209Z,0.30
2022-11-14T08:38:34.771Z,0.30
2022-11-14T08:41:20.893Z,0.32
2022-11-14T08:44:08.627Z,0.32
2022-11-14T08:46:54.753Z,0.30
2022-11-14T08:49:41.007Z,0.30
2022-11-14T08:52:26.966Z,0.30
2022-11-14T08:55:13.050Z,0.28
2022-11-14T08:57:59.059Z,0.30
2022-11-14T09:00:46.550Z,0.30
2022-11-14T09:03:33.164Z,0.30
2022-11-14T09:06:19.679Z,0.30
2022-11-14T09:09:05.866Z,0.30
2022-11-14T09:11:51.739Z,0.30
2022-11-14T09:14:37.812Z,0.32
2022-11-14T09:17:25.446Z,0.30
2022-11-14T09:20:11.678Z,0.30
2022-11-14T09:22:59.087Z,0.30
2022-11-14T09:25:45.058Z,0.30
2022-11-14T09:28:31.234Z,0.30
2022-11-14T09:31:17.349Z,0.30
2022-11-14T09:34:04.842Z,0.30
2022-11-14T09:36:50.964Z,0.30
2022-11-14T09:39:40.338Z,0.20
2022-11-14T09:42:38.892Z,0.28
2022-11-14T09:45:25.362Z,0.30
2022-11-14T09:48:14.335Z,0.30
2022-11-14T09:51:07.007Z,0.30
2022-11-14T09:53:56.889Z,0.30
2022-11-14T09:56:43.134Z,0.28
2022-11-14T09:59:30.104Z,0.30
2022-11-14T10:02:28.282Z,0.38
2022-11-14T10:05:26.194Z,0.30
2022-11-14T10:08:21.366Z,0.30
2022-11-14T10:11:10.039Z,0.20
2022-11-14T10:14:16.146Z,0.28
2022-11-14T10:17:10.679Z,0.30
2022-11-14T10:20:00.938Z,0.30
2022-11-14T10:23:00.997Z,0.30
2022-11-14T10:25:53.983Z,0.30
2022-11-14T10:28:42.988Z,0.30
2022-11-14T10:31:34.479Z,0.20
2022-11-14T10:34:26.413Z,0.28
2022-11-14T10:37:17.040Z,0.30
2022-11-14T10:40:05.784Z,0.30
2022-11-14T10:42:56.464Z,0.28
2022-11-14T10:45:44.772Z,0.20
2022-11-14T10:48:32.502Z,0.20
2022-11-14T10:51:21.950Z,0.30
2022-11-14T10:54:11.949Z,0.30
2022-11-14T10:56:58.750Z,0.28
2022-11-14T10:59:47.272Z,0.20
2022-11-14T11:02:47.691Z,0.20
2022-11-14T11:05:45.148Z,0.28
2022-11-14T11:08:49.301Z,0.30
2022-11-14T11:11:35.544Z,0.28
2022-11-14T11:14:22.281Z,0.20
2022-11-14T11:17:15.756Z,0.20
2022-11-14T11:20:22.915Z,0.30
2022-11-14T11:23:18.323Z,0.20
2022-11-14T11:26:07.768Z,0.20
2022-11-14T11:29:04.387Z,0.20
2022-11-14T11:31:51.885Z,0.30
2022-11-14T11:34:39.294Z,0.20
2022-11-14T11:37:27.108Z,0.20
2022-11-14T11:40:18.028Z,0.20
2022-11-14T11:43:37.355Z,0.20
2022-11-14T11:46:15.375Z,0.20
2022-11-14T11:49:03.890Z,0.20
2022-11-14T11:51:53.981Z,0.20
2022-11-14T11:54:47.306Z,0.30
2022-11-14T11:57:36.218Z,0.20
2022-11-14T12:00:22.666Z,0.20
2022-11-14T12:03:12.831Z,0.20
2022-11-14T12:06:04.067Z,0.20
2022-11-14T12:09:00.594Z,0.20
2022-11-14T12:11:48.411Z,0.20
2022-11-14T12:14:46.072Z,0.20
2022-11-14T12:17:48.578Z,0.20
2022-11-14T12:20:44.091Z,0.20
2022-11-14T12:23:46.319Z,0.20
2022-11-14T12:26:42.913Z,0.20
2022-11-14T12:29:37.600Z,0.20
2022-11-14T12:32:28.390Z,0.20
2022-11-14T12:35:18.238Z,0.20
2022-11-14T12:38:05.858Z,0.20
2022-11-14T12:40:53.472Z,0.20
2022-11-14T12:43:42.921Z,0.30
2022-11-14T12:46:38.554Z,0.20
2022-11-14T12:49:57.489Z,0.20
2022-11-14T12:52:44.901Z,0.22
2022-11-14T12:55:49.388Z,0.20
2022-11-14T12:58:59.657Z,0.20
2022-11-14T13:01:49.393Z,0.30
2022-11-14T13:04:40.211Z,0.30
2022-11-14T13:07:34.342Z,0.30
2022-11-14T13:10:27.732Z,0.30
2022-11-14T13:13:32.106Z,0.20
2022-11-14T13:16:43.758Z,0.30
2022-11-14T13:19:59.340Z,0.30
2022-11-14T13:22:46.493Z,0.30
2022-11-14T13:25:32.627Z,0.30
2022-11-14T13:28:48.976Z,0.20
2022-11-14T13:31:46.998Z,0.30
2022-11-14T13:34:47.342Z,0.30
2022-11-14T13:37:43.891Z,0.40
2022-11-14T13:40:34.469Z,0.30
2022-11-14T13:43:23.564Z,0.38
2022-11-14T13:46:14.566Z,0.25
2022-11-14T13:49:08.866Z,0.20
2022-11-14T13:51:55.230Z,0.20
2022-11-14T13:54:46.616Z,0.40
2022-11-14T13:57:41.884Z,0.30
2022-11-14T14:00:29.960Z,0.30
2022-11-14T14:03:24.710Z,0.30
2022-11-14T14:06:17.926Z,0.30
2022-11-14T14:09:22.673Z,0.30
2022-11-14T14:12:15.994Z,0.30
2022-11-14T14:15:09.557Z,0.38
2022-11-14T14:18:03.564Z,0.30
2022-11-14T14:20:54.791Z,0.32
2022-11-14T14:23:47.004Z,0.40
2022-11-14T14:26:38.371Z,0.30
2022-11-14T14:29:25.449Z,0.40
2022-11-14T14:32:13.142Z,0.40
2022-11-14T14:35:00.590Z,0.30
2022-11-14T14:37:50.940Z,0.30
2022-11-14T14:40:39.261Z,0.30
2022-11-14T14:43:28.273Z,0.30
2022-11-14T14:46:14.474Z,0.28
2022-11-14T14:49:02.541Z,0.30
2022-11-14T14:51:48.690Z,0.30
2022-11-14T14:54:34.920Z,0.40
2022-11-14T14:57:23.458Z,0.30
2022-11-14T15:00:17.828Z,0.30
2022-11-14T15:03:04.285Z,0.30
2022-11-14T15:05:57.957Z,0.30
2022-11-14T15:08:45.510Z,0.30
2022-11-14T15:11:32.913Z,0.20
2022-11-14T15:14:21.725Z,0.30
2022-11-14T15:17:07.921Z,0.40
2022-11-14T15:19:54.484Z,0.30
2022-11-14T15:22:40.509Z,0.30
2022-11-14T15:25:27.049Z,0.30
2022-11-14T15:28:14.889Z,0.30
2022-11-14T15:31:27.078Z,0.30
2022-11-14T15:34:23.790Z,0.40
2022-11-14T15:37:20.314Z,0.30
2022-11-14T15:40:17.209Z,0.40
2022-11-14T15:43:23.368Z,0.40
2022-11-14T15:46:24.478Z,0.32
2022-11-14T15:49:20.039Z,0.30
2022-11-14T15:52:06.629Z,0.40
2022-11-14T15:54:52.574Z,0.40
2022-11-14T15:57:38.572Z,0.30
2022-11-14T16:00:24.874Z,0.40
2022-11-14T16:03:12.501Z,0.38
2022-11-14T16:05:59.859Z,0.40
2022-11-14T16:08:46.101Z,0.30
2022-11-14T16:11:33.544Z,0.30
2022-11-14T16:14:19.515Z,0.30
2022-11-14T16:17:05.622Z,0.30
2022-11-14T16:19:51.673Z,0.30
2022-11-14T16:22:39.214Z,0.30
2022-11-14T16:25:26.322Z,0.32
2022-11-14T16:28:12.289Z,0.30
2022-11-14T16:30:58.748Z,0.30
2022-11-14T16:33:45.533Z,0.40
2022-11-14T16:36:32.382Z,0.30
2022-11-14T16:39:19.921Z,0.30
2022-11-14T16:42:06.455Z,0.30
2022-11-14T16:44:52.723Z,0.30
2022-11-14T16:47:38.597Z,0.40
2022-11-14T16:50:24.689Z,0.30
2022-11-14T16:53:36.575Z,0.30
2022-11-14T16:56:24.301Z,0.30
2022-11-14T16:59:10.623Z,0.30
2022-11-14T17:01:56.570Z,0.30
2022-11-14T17:04:43.043Z,0.30
2022-11-14T17:07:32.597Z,0.32
2022-11-14T17:10:19.544Z,0.30
2022-11-14T17:13:07.042Z,0.30
2022-11-14T17:15:53.112Z,0.30
2022-11-14T17:18:39.599Z,0.30
2022-11-14T17:21:26.375Z,0.40
2022-11-14T17:24:12.468Z,0.30
2022-11-14T17:26:58.196Z,0.30
2022-11-14T17:29:46.590Z,0.30
2022-11-14T17:32:32.700Z,0.30
2022-11-14T17:35:19.056Z,0.30
2022-11-14T17:38:05.187Z,0.30
2022-11-14T17:41:16.392Z,0.30
2022-11-14T17:44:03.557Z,0.30
2022-11-14T17:46:51.226Z,0.30
2022-11-14T17:49:37.209Z,0.40
2022-11-14T17:52:23.505Z,0.30
2022-11-14T17:55:09.632Z,0.30
2022-11-14T17:57:55.569Z,0.30
2022-11-14T18:00:41.787Z,0.30
2022-11-14T18:03:29.461Z,0.35
2022-11-14T18:06:19.133Z,0.30
2022-11-14T18:09:08.127Z,0.40
2022-11-14T18:11:56.418Z,0.30
2022-11-14T18:14:42.494Z,0.30
2022-11-14T18:17:28.381Z,0.30
2022-11-14T18:20:15.664Z,0.30
2022-11-14T18:23:01.962Z,0.30
2022-11-14T18:25:48.321Z,0.40
2022-11-14T18:28:34.568Z,0.40
2022-11-14T18:31:20.509Z,0.30
2022-11-14T18:34:31.278Z,0.35
2022-11-14T18:37:18.852Z,0.30
2022-11-14T18:40:04.942Z,0.20
2022-11-14T18:42:51.358Z,0.30
2022-11-14T18:45:37.401Z,0.30
2022-11-14T18:48:23.458Z,0.30
2022-11-14T18:51:11.865Z,0.30
2022-11-14T18:54:00.078Z,0.30
2022-11-14T18:56:46.586Z,0.30
2022-11-14T18:59:32.770Z,0.40
2022-11-14T19:02:18.923Z,0.30
2022-11-14T19:05:05.325Z,0.30
2022-11-14T19:07:52.452Z,0.30
2022-11-14T19:10:40.049Z,0.25
2022-11-14T19:13:25.939Z,0.50
2022-11-14T19:16:11.975Z,0.30
2022-11-14T19:18:58.429Z,0.30
2022-11-14T19:21:44.550Z,0.30
2022-11-14T19:24:30.787Z,0.30
2022-11-14T19:27:18.282Z,0.45
2022-11-14T19:30:05.574Z,0.40
2022-11-14T19:32:51.519Z,0.30
2022-11-14T19:35:38.607Z,0.30
2022-11-14T19:38:24.653Z,0.40
2022-11-14T19:41:12.677Z,0.30
2022-11-14T19:44:00.706Z,0.30
2022-11-14T19:46:48.047Z,0.30
2022-11-14T19:49:34.653Z,0.35
2022-11-14T19:52:20.716Z,0.35
2022-11-14T19:55:06.986Z,0.40
2022-11-14T19:57:53.300Z,0.40
2022-11-14T20:00:40.974Z,0.40
2022-11-14T20:03:27.102Z,0.40
2022-11-14T20:06:16.983Z,0.30
2022-11-14T20:09:04.973Z,0.30
2022-11-14T20:11:51.290Z,0.30
2022-11-14T20:14:37.405Z,0.30
2022-11-14T20:17:24.945Z,0.30
2022-11-14T20:20:11.227Z,0.30
2022-11-14T20:22:57.336Z,0.20
2022-11-14T20:25:43.780Z,0.30
2022-11-14T20:28:30.210Z,0.30
2022-11-14T20:31:17.172Z,0.30
2022-11-14T20:34:04.867Z,0.38
2022-11-14T20:39:57.589Z,0.40
2022-11-14T20:42:47.521Z,0.30
2022-11-14T20:45:33.659Z,0.40
2022-11-14T20:48:19.724Z,0.30
2022-11-14T20:51:08.497Z,0.30
2022-11-14T20:53:55.181Z,0.30
2022-11-14T20:56:41.612Z,0.35
2022-11-14T20:59:27.844Z,0.30
2022-11-14T21:02:14.903Z,0.30
2022-11-14T21:05:01.400Z,0.40
2022-11-14T21:07:48.836Z,0.30
2022-11-14T21:10:49.040Z,0.30
2022-11-14T21:13:53.033Z,0.30
2022-11-14T21:16:40.264Z,0.40
2022-11-14T21:19:26.641Z,0.35
2022-11-14T21:22:13.316Z,0.30
2022-11-14T21:25:00.558Z,0.40
2022-11-14T21:27:47.533Z,0.38
2022-11-14T21:30:34.500Z,0.40
2022-11-14T21:33:20.540Z,0.40
2022-11-14T21:36:22.884Z,0.40
2022-11-14T21:39:14.836Z,0.38
2022-11-14T21:42:02.764Z,0.40
2022-11-14T21:44:49.042Z,0.30
2022-11-14T21:47:35.263Z,0.30
2022-11-14T21:50:21.299Z,0.30
2022-11-14T21:53:15.736Z,0.30
2022-11-14T21:56:09.354Z,0.30
2022-11-14T21:59:12.520Z,0.30
2022-11-14T22:02:16.855Z,0.30
2022-11-14T22:05:03.171Z,0.40
2022-11-14T22:07:49.391Z,0.40
2022-11-14T22:10:35.667Z,0.30
2022-11-14T22:13:21.848Z,0.30
2022-11-14T22:16:10.032Z,0.40
2022-11-14T22:19:02.006Z,0.30
2022-11-14T22:21:51.010Z,0.32
2022-11-14T22:24:37.093Z,0.35
2022-11-14T22:27:23.405Z,0.30
2022-11-14T22:30:10.023Z,0.40
2022-11-14T22:32:59.466Z,0.30
2022-11-14T22:35:45.389Z,0.30
2022-11-14T22:38:31.978Z,0.30
2022-11-14T22:41:18.838Z,0.38
2022-11-14T22:44:04.804Z,0.40
2022-11-14T22:46:50.833Z,0.40
2022-11-14T22:49:45.206Z,0.40
2022-11-14T22:52:31.529Z,0.30
2022-11-14T22:55:18.406Z,0.30
2022-11-14T22:58:04.649Z,0.30
2022-11-14T23:00:51.517Z,0.30
2022-11-14T23:03:38.074Z,0.40
2022-11-14T23:06:26.419Z,0.30
2022-11-14T23:09:13.797Z,0.40
2022-11-14T23:11:59.858Z,0.30
2022-11-14T23:14:45.822Z,0.30
2022-11-14T23:17:32.739Z,0.40
2022-11-14T23:20:18.724Z,0.30
2022-11-14T23:23:06.285Z,0.40
2022-11-14T23:25:52.506Z,0.40
2022-11-14T23:28:38.469Z,0.30
2022-11-14T23:31:25.303Z,0.32
2022-11-14T23:34:11.360Z,0.35
2022-11-14T23:36:57.188Z,0.40
2022-11-14T23:39:44.837Z,0.30
2022-11-14T23:42:31.132Z,0.45
2022-11-14T23:45:17.028Z,0.40
2022-11-14T23:48:03.188Z,0.40
2022-11-14T23:50:50.669Z,0.30
2022-11-14T23:53:36.456Z,0.47
2022-11-14T23:56:23.745Z,0.40
2022-11-14T23:59:10.099Z,0.30
